sensor_id;sensor_type;location;lat;lon;timestamp;temperature;humidity
20141;DHT22;10231;47.702;9.826;2022-10-16T00:01:09;12.40;99.90
20141;DHT22;10231;47.702;9.826;2022-10-16T00:03:36;12.30;99.90
20141;DHT22;10231;47.702;9.826;2022-10-16T00:06:02;12.40;99.90
20141;DHT22;10231;47.702;9.826;2022-10-16T00:08:28;12.40;99.90
20141;DHT22;10231;47.702;9.826;2022-10-16T00:11:00;12.40;99.90
20141;DHT22;10231;47.702;9.826;2022-10-16T00:13:26;12.40;99.90
20141;DHT22;10231;47.702;9.826;2022-10-16T00:15:55;12.40;99.90
20141;DHT22;10231;47.702;9.826;2022-10-16T00:18:21;12.40;99.90
20141;DHT22;10231;47.702;9.826;2022-10-16T00:20:47;12.40;99.90
20141;DHT22;10231;47.702;9.826;2022-10-16T00:23:12;12.40;99.90
20141;DHT22;10231;47.702;9.826;2022-10-16T00:25:38;12.50;99.90
20141;DHT22;10231;47.702;9.826;2022-10-16T00:28:03;12.40;99.90
20141;DHT22;10231;47.702;9.826;2022-10-16T00:30:29;12.40;99.90
20141;DHT22;10231;47.702;9.826;2022-10-16T00:32:55;12.40;99.90
20141;DHT22;10231;47.702;9.826;2022-10-16T00:35:21;12.40;99.90
20141;DHT22;10231;47.702;9.826;2022-10-16T00:37:47;12.40;99.90
20141;DHT22;10231;47.702;9.826;2022-10-16T00:40:12;12.40;99.90
20141;DHT22;10231;47.702;9.826;2022-10-16T00:42:38;12.50;99.90
20141;DHT22;10231;47.702;9.826;2022-10-16T00:45:05;12.50;99.90
20141;DHT22;10231;47.702;9.826;2022-10-16T00:47:34;12.50;99.90
20141;DHT22;10231;47.702;9.826;2022-10-16T00:50:07;12.50;99.90
20141;DHT22;10231;47.702;9.826;2022-10-16T00:52:33;12.50;99.90
20141;DHT22;10231;47.702;9.826;2022-10-16T00:55:00;12.50;99.90
20141;DHT22;10231;47.702;9.826;2022-10-16T00:57:27;12.50;99.90
20141;DHT22;10231;47.702;9.826;2022-10-16T00:59:53;12.50;99.90
20141;DHT22;10231;47.702;9.826;2022-10-16T01:02:19;12.50;99.90
20141;DHT22;10231;47.702;9.826;2022-10-16T01:04:50;12.50;99.90
20141;DHT22;10231;47.702;9.826;2022-10-16T01:07:41;12.50;99.90
20141;DHT22;10231;47.702;9.826;2022-10-16T01:10:43;12.50;99.90
20141;DHT22;10231;47.702;9.826;2022-10-16T01:13:14;12.50;99.90
20141;DHT22;10231;47.702;9.826;2022-10-16T01:15:55;12.50;99.90
20141;DHT22;10231;47.702;9.826;2022-10-16T01:18:44;12.50;99.90
20141;DHT22;10231;47.702;9.826;2022-10-16T01:29:07;12.50;99.90
20141;DHT22;10231;47.702;9.826;2022-10-16T01:31:36;12.50;99.90
20141;DHT22;10231;47.702;9.826;2022-10-16T01:34:25;12.40;99.90
20141;DHT22;10231;47.702;9.826;2022-10-16T01:37:01;12.40;99.90
20141;DHT22;10231;47.702;9.826;2022-10-16T01:39:31;12.40;99.90
20141;DHT22;10231;47.702;9.826;2022-10-16T01:42:24;12.40;99.90
20141;DHT22;10231;47.702;9.826;2022-10-16T01:44:53;12.40;99.90
20141;DHT22;10231;47.702;9.826;2022-10-16T01:47:22;12.40;99.90
20141;DHT22;10231;47.702;9.826;2022-10-16T01:49:49;12.40;99.90
20141;DHT22;10231;47.702;9.826;2022-10-16T01:52:18;12.40;99.90
20141;DHT22;10231;47.702;9.826;2022-10-16T01:54:47;12.30;99.90
20141;DHT22;10231;47.702;9.826;2022-10-16T01:57:14;12.40;99.90
20141;DHT22;10231;47.702;9.826;2022-10-16T01:59:47;12.30;99.90
20141;DHT22;10231;47.702;9.826;2022-10-16T02:02:15;12.30;99.90
20141;DHT22;10231;47.702;9.826;2022-10-16T02:04:45;12.30;99.90
20141;DHT22;10231;47.702;9.826;2022-10-16T02:07:12;12.30;99.90
20141;DHT22;10231;47.702;9.826;2022-10-16T02:09:38;12.40;99.90
20141;DHT22;10231;47.702;9.826;2022-10-16T02:12:18;12.30;99.90
20141;DHT22;10231;47.702;9.826;2022-10-16T02:14:46;12.20;99.90
20141;DHT22;10231;47.702;9.826;2022-10-16T02:17:14;12.20;99.90
20141;DHT22;10231;47.702;9.826;2022-10-16T02:19:41;12.30;99.90
20141;DHT22;10231;47.702;9.826;2022-10-16T02:22:09;12.20;99.90
20141;DHT22;10231;47.702;9.826;2022-10-16T02:24:43;12.30;99.90
20141;DHT22;10231;47.702;9.826;2022-10-16T02:27:25;12.20;99.90
20141;DHT22;10231;47.702;9.826;2022-10-16T02:29:56;12.30;99.90
20141;DHT22;10231;47.702;9.826;2022-10-16T02:32:28;12.40;99.90
20141;DHT22;10231;47.702;9.826;2022-10-16T02:34:56;12.30;99.90
20141;DHT22;10231;47.702;9.826;2022-10-16T02:37:24;12.30;99.90
20141;DHT22;10231;47.702;9.826;2022-10-16T02:39:51;12.30;99.90
20141;DHT22;10231;47.702;9.826;2022-10-16T02:42:18;12.30;99.90
20141;DHT22;10231;47.702;9.826;2022-10-16T02:44:44;12.30;99.90
20141;DHT22;10231;47.702;9.826;2022-10-16T02:47:09;12.30;99.90
20141;DHT22;10231;47.702;9.826;2022-10-16T02:49:35;12.30;99.90
20141;DHT22;10231;47.702;9.826;2022-10-16T02:52:01;12.30;99.90
20141;DHT22;10231;47.702;9.826;2022-10-16T02:54:26;12.40;99.90
20141;DHT22;10231;47.702;9.826;2022-10-16T02:56:52;12.30;99.90
20141;DHT22;10231;47.702;9.826;2022-10-16T02:59:17;12.40;99.90
20141;DHT22;10231;47.702;9.826;2022-10-16T03:01:43;12.30;99.90
20141;DHT22;10231;47.702;9.826;2022-10-16T03:04:09;12.30;99.90
20141;DHT22;10231;47.702;9.826;2022-10-16T03:06:34;12.30;99.90
20141;DHT22;10231;47.702;9.826;2022-10-16T03:09:00;12.40;99.90
20141;DHT22;10231;47.702;9.826;2022-10-16T03:11:25;12.30;99.90
20141;DHT22;10231;47.702;9.826;2022-10-16T03:13:52;12.30;99.90
20141;DHT22;10231;47.702;9.826;2022-10-16T03:16:17;12.30;99.90
20141;DHT22;10231;47.702;9.826;2022-10-16T03:18:43;12.30;99.90
20141;DHT22;10231;47.702;9.826;2022-10-16T03:21:08;12.30;99.90
20141;DHT22;10231;47.702;9.826;2022-10-16T03:23:34;12.30;99.90
20141;DHT22;10231;47.702;9.826;2022-10-16T03:25:59;12.30;99.90
20141;DHT22;10231;47.702;9.826;2022-10-16T03:28:25;12.30;99.90
20141;DHT22;10231;47.702;9.826;2022-10-16T03:30:51;12.20;99.90
20141;DHT22;10231;47.702;9.826;2022-10-16T03:33:16;12.20;99.90
20141;DHT22;10231;47.702;9.826;2022-10-16T03:35:42;12.20;99.90
20141;DHT22;10231;47.702;9.826;2022-10-16T03:38:08;12.20;99.90
20141;DHT22;10231;47.702;9.826;2022-10-16T03:40:33;12.20;99.90
20141;DHT22;10231;47.702;9.826;2022-10-16T03:42:59;12.20;99.90
20141;DHT22;10231;47.702;9.826;2022-10-16T03:45:25;12.10;99.90
20141;DHT22;10231;47.702;9.826;2022-10-16T03:47:51;12.10;99.90
20141;DHT22;10231;47.702;9.826;2022-10-16T03:50:17;12.10;99.90
20141;DHT22;10231;47.702;9.826;2022-10-16T03:52:42;12.10;99.90
20141;DHT22;10231;47.702;9.826;2022-10-16T03:55:08;12.10;99.90
20141;DHT22;10231;47.702;9.826;2022-10-16T03:57:34;12.10;99.90
20141;DHT22;10231;47.702;9.826;2022-10-16T03:59:59;12.10;99.90
20141;DHT22;10231;47.702;9.826;2022-10-16T04:02:25;12.10;99.90
20141;DHT22;10231;47.702;9.826;2022-10-16T04:04:50;12.10;99.90
20141;DHT22;10231;47.702;9.826;2022-10-16T04:07:16;12.10;99.90
20141;DHT22;10231;47.702;9.826;2022-10-16T04:09:41;12.10;99.90
20141;DHT22;10231;47.702;9.826;2022-10-16T04:12:07;12.10;99.90
20141;DHT22;10231;47.702;9.826;2022-10-16T04:14:33;12.10;99.90
20141;DHT22;10231;47.702;9.826;2022-10-16T04:16:59;12.00;99.90
20141;DHT22;10231;47.702;9.826;2022-10-16T04:19:24;12.00;99.90
20141;DHT22;10231;47.702;9.826;2022-10-16T04:21:50;12.00;99.90
20141;DHT22;10231;47.702;9.826;2022-10-16T04:24:16;12.00;99.90
20141;DHT22;10231;47.702;9.826;2022-10-16T04:26:41;12.10;99.90
20141;DHT22;10231;47.702;9.826;2022-10-16T04:29:07;12.10;99.90
20141;DHT22;10231;47.702;9.826;2022-10-16T04:31:33;12.20;99.90
20141;DHT22;10231;47.702;9.826;2022-10-16T04:33:58;12.10;99.90
20141;DHT22;10231;47.702;9.826;2022-10-16T04:36:24;12.00;99.90
20141;DHT22;10231;47.702;9.826;2022-10-16T04:38:49;12.00;99.90
20141;DHT22;10231;47.702;9.826;2022-10-16T04:41:15;12.00;99.90
20141;DHT22;10231;47.702;9.826;2022-10-16T04:43:41;12.00;99.90
20141;DHT22;10231;47.702;9.826;2022-10-16T04:46:06;12.00;99.90
20141;DHT22;10231;47.702;9.826;2022-10-16T04:48:32;12.00;99.90
20141;DHT22;10231;47.702;9.826;2022-10-16T04:50:58;12.00;99.90
20141;DHT22;10231;47.702;9.826;2022-10-16T04:53:24;12.00;99.90
20141;DHT22;10231;47.702;9.826;2022-10-16T04:55:50;12.00;99.90
20141;DHT22;10231;47.702;9.826;2022-10-16T04:58:16;11.90;99.90
20141;DHT22;10231;47.702;9.826;2022-10-16T05:00:42;11.90;99.90
20141;DHT22;10231;47.702;9.826;2022-10-16T05:03:07;11.90;99.90
20141;DHT22;10231;47.702;9.826;2022-10-16T05:05:35;11.90;99.90
20141;DHT22;10231;47.702;9.826;2022-10-16T05:08:00;11.90;99.90
20141;DHT22;10231;47.702;9.826;2022-10-16T05:10:26;11.80;99.90
20141;DHT22;10231;47.702;9.826;2022-10-16T05:12:52;11.90;99.90
20141;DHT22;10231;47.702;9.826;2022-10-16T05:15:18;11.80;99.90
20141;DHT22;10231;47.702;9.826;2022-10-16T05:17:44;11.80;99.90
20141;DHT22;10231;47.702;9.826;2022-10-16T05:20:09;11.90;99.90
20141;DHT22;10231;47.702;9.826;2022-10-16T05:22:35;11.90;99.90
20141;DHT22;10231;47.702;9.826;2022-10-16T05:25:01;11.90;99.90
20141;DHT22;10231;47.702;9.826;2022-10-16T05:27:26;11.90;99.90
20141;DHT22;10231;47.702;9.826;2022-10-16T05:29:52;11.90;99.90
20141;DHT22;10231;47.702;9.826;2022-10-16T05:32:18;11.90;99.90
20141;DHT22;10231;47.702;9.826;2022-10-16T05:34:44;11.90;99.90
20141;DHT22;10231;47.702;9.826;2022-10-16T05:37:10;12.00;99.90
20141;DHT22;10231;47.702;9.826;2022-10-16T05:39:37;12.00;99.90
20141;DHT22;10231;47.702;9.826;2022-10-16T05:42:04;12.00;99.90
20141;DHT22;10231;47.702;9.826;2022-10-16T05:44:30;12.00;99.90
20141;DHT22;10231;47.702;9.826;2022-10-16T05:46:55;12.00;99.90
20141;DHT22;10231;47.702;9.826;2022-10-16T05:49:21;12.00;99.90
20141;DHT22;10231;47.702;9.826;2022-10-16T05:51:47;12.00;99.90
20141;DHT22;10231;47.702;9.826;2022-10-16T05:54:12;11.90;99.90
20141;DHT22;10231;47.702;9.826;2022-10-16T05:56:38;11.90;99.90
20141;DHT22;10231;47.702;9.826;2022-10-16T05:59:04;11.80;99.90
20141;DHT22;10231;47.702;9.826;2022-10-16T06:01:30;11.80;99.90
20141;DHT22;10231;47.702;9.826;2022-10-16T06:03:56;11.80;99.90
20141;DHT22;10231;47.702;9.826;2022-10-16T06:06:24;11.80;99.90
20141;DHT22;10231;47.702;9.826;2022-10-16T06:08:51;11.80;99.90
20141;DHT22;10231;47.702;9.826;2022-10-16T06:11:19;11.80;99.90
20141;DHT22;10231;47.702;9.826;2022-10-16T06:13:52;11.80;99.90
20141;DHT22;10231;47.702;9.826;2022-10-16T06:16:18;11.80;99.90
20141;DHT22;10231;47.702;9.826;2022-10-16T06:18:45;11.90;99.90
20141;DHT22;10231;47.702;9.826;2022-10-16T06:21:16;11.90;99.90
20141;DHT22;10231;47.702;9.826;2022-10-16T06:23:43;11.90;99.90
20141;DHT22;10231;47.702;9.826;2022-10-16T06:26:11;11.90;99.90
20141;DHT22;10231;47.702;9.826;2022-10-16T06:28:38;12.00;99.90
20141;DHT22;10231;47.702;9.826;2022-10-16T06:31:05;11.90;99.90
20141;DHT22;10231;47.702;9.826;2022-10-16T06:33:31;12.00;99.90
20141;DHT22;10231;47.702;9.826;2022-10-16T06:36:16;12.00;99.90
20141;DHT22;10231;47.702;9.826;2022-10-16T06:38:43;12.00;99.90
20141;DHT22;10231;47.702;9.826;2022-10-16T06:41:17;12.10;99.90
20141;DHT22;10231;47.702;9.826;2022-10-16T06:43:43;12.10;99.90
20141;DHT22;10231;47.702;9.826;2022-10-16T06:46:12;12.10;99.90
20141;DHT22;10231;47.702;9.826;2022-10-16T06:48:38;12.20;99.90
20141;DHT22;10231;47.702;9.826;2022-10-16T06:51:06;12.20;99.90
20141;DHT22;10231;47.702;9.826;2022-10-16T06:53:36;12.20;99.90
20141;DHT22;10231;47.702;9.826;2022-10-16T06:56:08;12.20;99.90
20141;DHT22;10231;47.702;9.826;2022-10-16T06:58:34;12.30;99.90
20141;DHT22;10231;47.702;9.826;2022-10-16T07:01:00;12.30;99.90
20141;DHT22;10231;47.702;9.826;2022-10-16T07:03:25;12.40;99.90
20141;DHT22;10231;47.702;9.826;2022-10-16T07:05:51;12.50;99.90
20141;DHT22;10231;47.702;9.826;2022-10-16T07:08:16;12.50;99.90
20141;DHT22;10231;47.702;9.826;2022-10-16T07:10:42;12.50;99.90
20141;DHT22;10231;47.702;9.826;2022-10-16T07:13:07;12.60;99.90
20141;DHT22;10231;47.702;9.826;2022-10-16T07:15:33;12.60;99.90
20141;DHT22;10231;47.702;9.826;2022-10-16T07:17:59;12.70;99.90
20141;DHT22;10231;47.702;9.826;2022-10-16T07:20:25;12.70;99.90
20141;DHT22;10231;47.702;9.826;2022-10-16T07:22:51;12.80;99.90
20141;DHT22;10231;47.702;9.826;2022-10-16T07:25:17;12.80;99.90
20141;DHT22;10231;47.702;9.826;2022-10-16T07:27:42;12.80;99.90
20141;DHT22;10231;47.702;9.826;2022-10-16T07:30:08;12.90;99.90
20141;DHT22;10231;47.702;9.826;2022-10-16T07:32:34;13.00;99.90
20141;DHT22;10231;47.702;9.826;2022-10-16T07:35:00;13.10;99.90
20141;DHT22;10231;47.702;9.826;2022-10-16T07:37:25;13.10;99.90
20141;DHT22;10231;47.702;9.826;2022-10-16T07:39:51;13.20;99.90
20141;DHT22;10231;47.702;9.826;2022-10-16T07:42:17;13.30;99.90
20141;DHT22;10231;47.702;9.826;2022-10-16T07:44:42;13.30;99.90
20141;DHT22;10231;47.702;9.826;2022-10-16T07:47:09;13.40;99.90
20141;DHT22;10231;47.702;9.826;2022-10-16T07:49:35;13.40;99.90
20141;DHT22;10231;47.702;9.826;2022-10-16T07:52:00;13.50;99.90
20141;DHT22;10231;47.702;9.826;2022-10-16T07:54:26;13.60;99.90
20141;DHT22;10231;47.702;9.826;2022-10-16T07:56:51;13.60;99.90
20141;DHT22;10231;47.702;9.826;2022-10-16T07:59:17;13.70;99.90
20141;DHT22;10231;47.702;9.826;2022-10-16T08:01:43;13.70;99.90
20141;DHT22;10231;47.702;9.826;2022-10-16T08:04:09;13.80;99.90
20141;DHT22;10231;47.702;9.826;2022-10-16T08:06:37;13.80;99.90
20141;DHT22;10231;47.702;9.826;2022-10-16T08:09:03;13.80;99.90
20141;DHT22;10231;47.702;9.826;2022-10-16T08:11:29;13.90;99.90
20141;DHT22;10231;47.702;9.826;2022-10-16T08:13:55;13.90;99.90
20141;DHT22;10231;47.702;9.826;2022-10-16T08:16:20;14.00;99.90
20141;DHT22;10231;47.702;9.826;2022-10-16T08:18:46;14.10;99.90
20141;DHT22;10231;47.702;9.826;2022-10-16T08:21:14;14.20;99.90
20141;DHT22;10231;47.702;9.826;2022-10-16T08:23:40;14.20;99.90
20141;DHT22;10231;47.702;9.826;2022-10-16T08:26:07;14.30;99.90
20141;DHT22;10231;47.702;9.826;2022-10-16T08:28:34;14.40;99.90
20141;DHT22;10231;47.702;9.826;2022-10-16T08:31:08;14.50;99.90
20141;DHT22;10231;47.702;9.826;2022-10-16T08:33:34;14.50;99.90
20141;DHT22;10231;47.702;9.826;2022-10-16T08:36:01;14.60;99.90
20141;DHT22;10231;47.702;9.826;2022-10-16T08:38:26;14.60;99.90
20141;DHT22;10231;47.702;9.826;2022-10-16T08:40:54;14.70;99.90
20141;DHT22;10231;47.702;9.826;2022-10-16T08:48:54;14.70;99.90
20141;DHT22;10231;47.702;9.826;2022-10-16T08:51:27;14.70;99.90
20141;DHT22;10231;47.702;9.826;2022-10-16T08:56:22;14.80;99.90
20141;DHT22;10231;47.702;9.826;2022-10-16T08:58:48;14.90;99.90
20141;DHT22;10231;47.702;9.826;2022-10-16T09:01:16;14.90;99.90
20141;DHT22;10231;47.702;9.826;2022-10-16T09:06:55;15.10;99.90
20141;DHT22;10231;47.702;9.826;2022-10-16T09:12:48;15.30;99.90
20141;DHT22;10231;47.702;9.826;2022-10-16T09:18:10;15.50;99.90
20141;DHT22;10231;47.702;9.826;2022-10-16T09:23:30;15.80;99.90
20141;DHT22;10231;47.702;9.826;2022-10-16T09:25:56;15.90;99.90
20141;DHT22;10231;47.702;9.826;2022-10-16T09:28:23;16.00;99.90
20141;DHT22;10231;47.702;9.826;2022-10-16T09:30:49;16.10;99.90
20141;DHT22;10231;47.702;9.826;2022-10-16T09:33:17;16.20;99.90
20141;DHT22;10231;47.702;9.826;2022-10-16T09:35:46;16.30;99.90
20141;DHT22;10231;47.702;9.826;2022-10-16T09:38:33;16.40;99.90
20141;DHT22;10231;47.702;9.826;2022-10-16T09:41:11;16.40;99.90
20141;DHT22;10231;47.702;9.826;2022-10-16T09:43:41;16.50;99.90
20141;DHT22;10231;47.702;9.826;2022-10-16T09:46:32;16.50;99.90
20141;DHT22;10231;47.702;9.826;2022-10-16T09:49:03;16.50;99.90
20141;DHT22;10231;47.702;9.826;2022-10-16T09:54:01;16.70;99.90
20141;DHT22;10231;47.702;9.826;2022-10-16T09:56:34;16.90;99.90
20141;DHT22;10231;47.702;9.826;2022-10-16T09:59:15;17.00;99.90
20141;DHT22;10231;47.702;9.826;2022-10-16T10:01:48;17.10;99.90
20141;DHT22;10231;47.702;9.826;2022-10-16T10:04:14;17.30;99.90
20141;DHT22;10231;47.702;9.826;2022-10-16T10:06:46;17.40;99.90
20141;DHT22;10231;47.702;9.826;2022-10-16T10:11:47;17.40;99.90
20141;DHT22;10231;47.702;9.826;2022-10-16T10:14:34;17.50;99.90
20141;DHT22;10231;47.702;9.826;2022-10-16T10:19:36;17.50;99.90
20141;DHT22;10231;47.702;9.826;2022-10-16T10:22:22;17.60;99.90
20141;DHT22;10231;47.702;9.826;2022-10-16T10:33:09;17.80;99.90
20141;DHT22;10231;47.702;9.826;2022-10-16T10:38:31;17.80;99.90
20141;DHT22;10231;47.702;9.826;2022-10-16T11:03:09;18.50;99.90
20141;DHT22;10231;47.702;9.826;2022-10-16T11:06:04;18.60;99.90
20141;DHT22;10231;47.702;9.826;2022-10-16T11:08:43;18.60;99.90
20141;DHT22;10231;47.702;9.826;2022-10-16T11:11:29;18.70;99.90
20141;DHT22;10231;47.702;9.826;2022-10-16T11:14:03;18.80;99.90
20141;DHT22;10231;47.702;9.826;2022-10-16T11:16:34;18.80;99.90
20141;DHT22;10231;47.702;9.826;2022-10-16T11:22:09;19.10;99.90
20141;DHT22;10231;47.702;9.826;2022-10-16T11:24:53;19.10;99.90
20141;DHT22;10231;47.702;9.826;2022-10-16T11:27:36;19.10;99.90
20141;DHT22;10231;47.702;9.826;2022-10-16T11:30:08;19.10;99.90
20141;DHT22;10231;47.702;9.826;2022-10-16T11:33:02;19.10;99.90
20141;DHT22;10231;47.702;9.826;2022-10-16T11:41:03;19.00;99.90
20141;DHT22;10231;47.702;9.826;2022-10-16T11:43:37;19.10;99.90
20141;DHT22;10231;47.702;9.826;2022-10-16T11:46:20;19.30;99.90
20141;DHT22;10231;47.702;9.826;2022-10-16T11:48:58;19.40;99.90
20141;DHT22;10231;47.702;9.826;2022-10-16T11:51:38;19.50;99.90
20141;DHT22;10231;47.702;9.826;2022-10-16T11:54:32;19.60;99.90
20141;DHT22;10231;47.702;9.826;2022-10-16T11:57:08;19.60;99.90
20141;DHT22;10231;47.702;9.826;2022-10-16T11:59:49;19.60;99.90
20141;DHT22;10231;47.702;9.826;2022-10-16T12:02:45;19.60;99.90
20141;DHT22;10231;47.702;9.826;2022-10-16T12:08:14;19.60;99.90
20141;DHT22;10231;47.702;9.826;2022-10-16T12:10:43;19.60;99.90
20141;DHT22;10231;47.702;9.826;2022-10-16T12:13:34;19.50;99.90
20141;DHT22;10231;47.702;9.826;2022-10-16T12:18:42;19.70;99.90
20141;DHT22;10231;47.702;9.826;2022-10-16T12:21:09;19.80;99.90
20141;DHT22;10231;47.702;9.826;2022-10-16T12:26:12;19.80;99.90
20141;DHT22;10231;47.702;9.826;2022-10-16T12:28:38;19.80;99.90
20141;DHT22;10231;47.702;9.826;2022-10-16T12:31:09;19.80;99.90
20141;DHT22;10231;47.702;9.826;2022-10-16T12:33:41;19.90;99.90
20141;DHT22;10231;47.702;9.826;2022-10-16T12:36:26;19.90;99.90
20141;DHT22;10231;47.702;9.826;2022-10-16T12:38:53;20.00;99.90
20141;DHT22;10231;47.702;9.826;2022-10-16T12:41:30;20.20;99.90
20141;DHT22;10231;47.702;9.826;2022-10-16T12:43:57;20.30;99.90
20141;DHT22;10231;47.702;9.826;2022-10-16T12:51:40;20.60;99.90
20141;DHT22;10231;47.702;9.826;2022-10-16T12:54:18;20.70;99.90
20141;DHT22;10231;47.702;9.826;2022-10-16T12:59:59;20.80;99.90
20141;DHT22;10231;47.702;9.826;2022-10-16T13:10:35;21.50;99.90
20141;DHT22;10231;47.702;9.826;2022-10-16T13:13:21;21.70;99.90
20141;DHT22;10231;47.702;9.826;2022-10-16T13:21:14;22.30;99.90
20141;DHT22;10231;47.702;9.826;2022-10-16T13:26:29;22.60;99.90
20141;DHT22;10231;47.702;9.826;2022-10-16T13:29:00;22.80;99.90
20141;DHT22;10231;47.702;9.826;2022-10-16T13:31:27;22.80;99.90
20141;DHT22;10231;47.702;9.826;2022-10-16T13:33:56;22.90;99.90
20141;DHT22;10231;47.702;9.826;2022-10-16T13:36:27;22.90;99.90
20141;DHT22;10231;47.702;9.826;2022-10-16T13:41:45;23.30;99.90
20141;DHT22;10231;47.702;9.826;2022-10-16T13:44:18;23.60;99.90
20141;DHT22;10231;47.702;9.826;2022-10-16T13:46:44;23.80;99.90
20141;DHT22;10231;47.702;9.826;2022-10-16T13:49:15;24.00;99.90
20141;DHT22;10231;47.702;9.826;2022-10-16T13:51:41;23.90;99.90
20141;DHT22;10231;47.702;9.826;2022-10-16T13:54:18;23.90;99.90
20141;DHT22;10231;47.702;9.826;2022-10-16T13:56:44;24.00;99.90
20141;DHT22;10231;47.702;9.826;2022-10-16T13:59:33;24.20;99.90
20141;DHT22;10231;47.702;9.826;2022-10-16T14:01:59;24.30;99.90
20141;DHT22;10231;47.702;9.826;2022-10-16T14:04:32;24.40;99.90
20141;DHT22;10231;47.702;9.826;2022-10-16T14:06:58;24.30;99.90
20141;DHT22;10231;47.702;9.826;2022-10-16T14:09:31;24.30;99.90
20141;DHT22;10231;47.702;9.826;2022-10-16T14:12:08;24.40;99.90
20141;DHT22;10231;47.702;9.826;2022-10-16T14:14:41;24.30;99.70
20141;DHT22;10231;47.702;9.826;2022-10-16T14:17:16;24.30;98.50
20141;DHT22;10231;47.702;9.826;2022-10-16T14:19:46;24.30;99.10
20141;DHT22;10231;47.702;9.826;2022-10-16T14:22:36;24.40;99.30
20141;DHT22;10231;47.702;9.826;2022-10-16T14:27:45;24.70;98.50
20141;DHT22;10231;47.702;9.826;2022-10-16T14:30:17;24.70;98.70
20141;DHT22;10231;47.702;9.826;2022-10-16T14:32:58;24.90;98.60
20141;DHT22;10231;47.702;9.826;2022-10-16T14:35:33;25.30;97.40
20141;DHT22;10231;47.702;9.826;2022-10-16T14:38:00;25.80;96.90
20141;DHT22;10231;47.702;9.826;2022-10-16T14:40:30;26.20;96.60
20141;DHT22;10231;47.702;9.826;2022-10-16T14:42:56;26.50;96.00
20141;DHT22;10231;47.702;9.826;2022-10-16T14:45:26;27.00;95.00
20141;DHT22;10231;47.702;9.826;2022-10-16T14:47:58;27.60;94.60
20141;DHT22;10231;47.702;9.826;2022-10-16T14:50:25;27.90;93.70
20141;DHT22;10231;47.702;9.826;2022-10-16T14:52:51;28.20;93.40
20141;DHT22;10231;47.702;9.826;2022-10-16T14:55:17;28.30;94.00
20141;DHT22;10231;47.702;9.826;2022-10-16T14:57:44;28.40;92.70
20141;DHT22;10231;47.702;9.826;2022-10-16T15:00:22;28.30;91.80
20141;DHT22;10231;47.702;9.826;2022-10-16T15:02:49;27.80;92.40
20141;DHT22;10231;47.702;9.826;2022-10-16T15:05:18;27.60;92.80
20141;DHT22;10231;47.702;9.826;2022-10-16T15:07:45;27.50;92.90
20141;DHT22;10231;47.702;9.826;2022-10-16T15:10:12;27.10;93.40
20141;DHT22;10231;47.702;9.826;2022-10-16T15:12:38;26.50;94.50
20141;DHT22;10231;47.702;9.826;2022-10-16T15:17:48;25.40;96.40
20141;DHT22;10231;47.702;9.826;2022-10-16T15:20:14;25.10;97.70
20141;DHT22;10231;47.702;9.826;2022-10-16T15:22:39;24.70;98.50
20141;DHT22;10231;47.702;9.826;2022-10-16T15:27:52;24.50;98.00
20141;DHT22;10231;47.702;9.826;2022-10-16T15:30:18;24.70;96.80
20141;DHT22;10231;47.702;9.826;2022-10-16T15:32:43;24.60;96.80
20141;DHT22;10231;47.702;9.826;2022-10-16T15:35:09;24.40;98.40
20141;DHT22;10231;47.702;9.826;2022-10-16T15:37:35;24.30;98.90
20141;DHT22;10231;47.702;9.826;2022-10-16T15:40:01;24.10;99.10
20141;DHT22;10231;47.702;9.826;2022-10-16T15:42:26;24.00;99.10
20141;DHT22;10231;47.702;9.826;2022-10-16T15:44:52;23.80;99.70
20141;DHT22;10231;47.702;9.826;2022-10-16T15:47:17;23.50;99.90
20141;DHT22;10231;47.702;9.826;2022-10-16T15:49:43;23.10;99.90
20141;DHT22;10231;47.702;9.826;2022-10-16T15:52:08;22.80;99.90
20141;DHT22;10231;47.702;9.826;2022-10-16T15:54:34;22.70;99.90
20141;DHT22;10231;47.702;9.826;2022-10-16T15:56:59;22.40;99.90
20141;DHT22;10231;47.702;9.826;2022-10-16T15:59:25;22.10;99.90
20141;DHT22;10231;47.702;9.826;2022-10-16T16:01:51;21.90;99.90
20141;DHT22;10231;47.702;9.826;2022-10-16T16:04:16;21.60;99.90
20141;DHT22;10231;47.702;9.826;2022-10-16T16:06:42;21.40;99.90
20141;DHT22;10231;47.702;9.826;2022-10-16T16:09:10;21.10;99.90
20141;DHT22;10231;47.702;9.826;2022-10-16T16:11:36;20.90;99.90
20141;DHT22;10231;47.702;9.826;2022-10-16T16:14:07;20.80;99.90
20141;DHT22;10231;47.702;9.826;2022-10-16T16:16:35;20.60;99.90
20141;DHT22;10231;47.702;9.826;2022-10-16T16:19:04;20.40;99.90
20141;DHT22;10231;47.702;9.826;2022-10-16T16:21:30;20.30;99.90
20141;DHT22;10231;47.702;9.826;2022-10-16T16:23:55;20.20;99.90
20141;DHT22;10231;47.702;9.826;2022-10-16T16:26:28;20.10;99.90
20141;DHT22;10231;47.702;9.826;2022-10-16T16:28:57;20.00;99.90
20141;DHT22;10231;47.702;9.826;2022-10-16T16:31:24;19.90;99.90
20141;DHT22;10231;47.702;9.826;2022-10-16T16:33:50;19.70;99.90
20141;DHT22;10231;47.702;9.826;2022-10-16T16:36:17;19.50;99.90
20141;DHT22;10231;47.702;9.826;2022-10-16T16:38:44;19.30;99.90
20141;DHT22;10231;47.702;9.826;2022-10-16T16:41:14;19.20;99.90
20141;DHT22;10231;47.702;9.826;2022-10-16T16:43:40;19.10;99.90
20141;DHT22;10231;47.702;9.826;2022-10-16T16:46:05;19.00;99.90
20141;DHT22;10231;47.702;9.826;2022-10-16T16:48:32;18.80;99.90
20141;DHT22;10231;47.702;9.826;2022-10-16T16:51:03;18.80;99.90
20141;DHT22;10231;47.702;9.826;2022-10-16T16:53:29;18.60;99.90
20141;DHT22;10231;47.702;9.826;2022-10-16T16:55:55;18.50;99.90
20141;DHT22;10231;47.702;9.826;2022-10-16T16:58:20;18.50;99.90
20141;DHT22;10231;47.702;9.826;2022-10-16T17:00:46;18.40;99.90
20141;DHT22;10231;47.702;9.826;2022-10-16T17:03:12;18.20;99.90
20141;DHT22;10231;47.702;9.826;2022-10-16T17:05:38;18.10;99.90
20141;DHT22;10231;47.702;9.826;2022-10-16T17:08:06;18.10;99.90
20141;DHT22;10231;47.702;9.826;2022-10-16T17:10:32;18.00;99.90
20141;DHT22;10231;47.702;9.826;2022-10-16T17:12:58;17.90;99.90
20141;DHT22;10231;47.702;9.826;2022-10-16T17:15:23;17.90;99.90
20141;DHT22;10231;47.702;9.826;2022-10-16T17:17:49;17.80;99.90
20141;DHT22;10231;47.702;9.826;2022-10-16T17:20:15;17.80;99.90
20141;DHT22;10231;47.702;9.826;2022-10-16T17:22:40;17.70;99.90
20141;DHT22;10231;47.702;9.826;2022-10-16T17:25:06;17.70;99.90
20141;DHT22;10231;47.702;9.826;2022-10-16T17:27:33;17.60;99.90
20141;DHT22;10231;47.702;9.826;2022-10-16T17:30:00;17.60;99.90
20141;DHT22;10231;47.702;9.826;2022-10-16T17:32:25;17.70;99.90
20141;DHT22;10231;47.702;9.826;2022-10-16T17:34:51;17.70;99.90
20141;DHT22;10231;47.702;9.826;2022-10-16T17:37:17;17.70;99.90
20141;DHT22;10231;47.702;9.826;2022-10-16T17:39:43;17.70;99.90
20141;DHT22;10231;47.702;9.826;2022-10-16T17:42:08;17.60;99.90